Time;durP1;ratioP1;P1;durP2;ratioP2;P2;SDS_P1;SDS_P2;PMS_P1;PMS_P2;Temp;Humidity;BMP_temperature;BMP_pressure;BME280_temperature;BME280_humidity;BME280_pressure;Samples;Min_cycle;Max_cycle;Signal;HPM_P1;HPM_P2
2022/07/01 00:00:50;;;;;;;3.53;1.10;;;;;;;25.04;48.50;99931.59;4954129;28;20092;-81
2022/07/01 00:03:17;;;;;;;2.97;1.20;;;;;;;25.00;48.78;99928.47;4951421;28;20100;-89
2022/07/01 00:05:44;;;;;;;1.92;1.00;;;;;;;24.95;48.70;99922.91;4946448;28;20129;-87
2022/07/01 00:08:11;;;;;;;2.63;0.95;;;;;;;24.92;48.51;99916.03;4962848;28;20520;-89
2022/07/01 00:10:38;;;;;;;3.03;1.35;;;;;;;24.86;49.25;99914.25;4961920;28;20042;-86
2022/07/01 00:13:06;;;;;;;1.48;0.80;;;;;;;24.83;48.38;99917.44;4975569;28;20042;-89
2022/07/01 00:15:33;;;;;;;2.05;1.00;;;;;;;24.77;49.07;99915.59;4961055;28;20046;-89
2022/07/01 00:17:59;;;;;;;2.00;1.00;;;;;;;24.75;49.25;99903.31;4983017;28;20569;-89
2022/07/01 00:20:26;;;;;;;2.25;1.00;;;;;;;24.73;49.42;99900.84;4993396;28;20112;-87
2022/07/01 00:22:54;;;;;;;2.78;1.10;;;;;;;24.69;49.35;99908.59;4961155;28;20553;-87
2022/07/01 00:25:21;;;;;;;3.10;1.10;;;;;;;24.69;49.22;99911.31;4968614;28;20558;-91
2022/07/01 00:27:48;;;;;;;1.65;0.80;;;;;;;24.67;49.16;99909.88;4953026;28;20379;-90
2022/07/01 00:30:15;;;;;;;2.95;0.85;;;;;;;24.65;49.24;99906.53;4983051;28;20105;-90
2022/07/01 00:32:42;;;;;;;2.50;1.00;;;;;;;24.63;49.49;99920.38;4948654;28;20044;-82
2022/07/01 00:35:13;;;;;;;1.92;1.10;;;;;;;24.61;49.55;99930.63;4948182;28;20073;-91
2022/07/01 00:37:40;;;;;;;0.90;0.80;;;;;;;24.61;49.66;99929.78;4979921;28;20047;-88
2022/07/01 00:40:07;;;;;;;0.93;0.90;;;;;;;24.60;49.33;99928.13;4958461;28;20070;-89
2022/07/01 00:42:38;;;;;;;1.25;0.90;;;;;;;24.56;49.56;99930.47;4980650;28;20129;-89
2022/07/01 00:45:07;;;;;;;3.17;0.90;;;;;;;24.53;49.35;99930.09;4986366;28;20148;-82
2022/07/01 00:47:34;;;;;;;5.40;1.20;;;;;;;24.50;49.55;99930.53;4956764;28;20517;-82
2022/07/01 00:50:01;;;;;;;134.70;13.07;;;;;;;24.46;49.08;99925.53;4971076;28;20054;-81
2022/07/01 00:52:27;;;;;;;1.92;0.98;;;;;;;24.42;49.12;99939.75;4964728;28;20128;-93
2022/07/01 00:54:56;;;;;;;3.03;0.90;;;;;;;24.35;49.22;99950.69;4962354;28;20060;-90
2022/07/01 00:57:23;;;;;;;3.55;1.15;;;;;;;24.30;49.50;99947.81;4985139;28;20497;-88
2022/07/01 00:59:50;;;;;;;2.08;1.10;;;;;;;24.30;49.25;99952.38;4958696;28;20078;-90
2022/07/01 01:02:16;;;;;;;4.63;1.00;;;;;;;24.25;49.49;99956.63;4960077;28;20513;-89
2022/07/01 01:04:43;;;;;;;1.98;1.00;;;;;;;24.26;49.69;99960.16;4975237;28;20616;-89
2022/07/01 01:07:10;;;;;;;4.00;1.10;;;;;;;24.23;49.25;99957.91;4968999;28;20038;-81
2022/07/01 01:09:37;;;;;;;0.70;0.70;;;;;;;24.15;49.43;99950.88;4976895;28;20048;-81
2022/07/01 01:12:05;;;;;;;3.30;0.85;;;;;;;24.10;49.95;99939.84;4993735;28;20092;-87
2022/07/01 01:14:49;;;;;;;3.63;0.98;;;;;;;24.05;50.42;99931.53;4967024;28;20049;-81
2022/07/01 01:17:16;;;;;;;2.28;1.13;;;;;;;24.04;50.13;99921.72;4969340;28;20041;-81
2022/07/01 01:19:44;;;;;;;3.58;0.88;;;;;;;24.00;50.35;99921.34;4977861;28;20049;-81
2022/07/01 01:22:14;;;;;;;4.22;0.93;;;;;;;23.99;50.46;99927.00;4965539;28;20073;-82
2022/07/01 01:24:42;;;;;;;2.25;1.05;;;;;;;23.96;49.36;99914.69;4939708;28;20054;-81
2022/07/01 01:27:10;;;;;;;4.15;1.15;;;;;;;23.93;50.31;99903.47;4973147;28;20057;-88
2022/07/01 01:29:37;;;;;;;2.00;0.98;;;;;;;23.95;50.28;99915.75;5001104;28;20046;-81
2022/07/01 01:32:05;;;;;;;2.25;1.20;;;;;;;23.94;50.51;99921.41;4988758;28;20053;-81
2022/07/01 01:34:33;;;;;;;2.60;1.20;;;;;;;23.92;50.17;99918.94;4956647;28;20104;-82
2022/07/01 01:37:00;;;;;;;4.03;1.13;;;;;;;23.92;50.33;99920.81;4979557;28;20123;-90
2022/07/01 01:39:56;;;;;;;2.75;0.90;;;;;;;23.89;50.53;99913.94;4972221;28;20100;-90
2022/07/01 01:42:23;;;;;;;1.65;1.00;;;;;;;23.86;50.81;99908.94;4978444;28;20065;-81
2022/07/01 01:44:50;;;;;;;4.25;1.20;;;;;;;23.84;50.77;99902.94;4972633;28;20497;-87
2022/07/01 01:47:17;;;;;;;2.28;0.80;;;;;;;23.82;50.52;99899.59;4953555;28;20050;-89
2022/07/01 01:49:43;;;;;;;0.80;0.80;;;;;;;23.79;49.78;99895.44;4964586;28;20061;-88
2022/07/01 01:52:10;;;;;;;0.88;0.82;;;;;;;23.68;49.69;99892.59;4982200;28;20042;-81
2022/07/01 01:54:37;;;;;;;2.03;1.00;;;;;;;23.61;49.49;99888.06;4948156;28;20097;-81
2022/07/01 01:57:04;;;;;;;3.90;1.10;;;;;;;23.55;50.00;99886.19;4965284;28;20462;-82
2022/07/01 01:59:31;;;;;;;1.70;0.70;;;;;;;23.51;50.19;99886.84;4980334;28;20045;-81
2022/07/01 02:01:58;;;;;;;7.88;1.23;;;;;;;23.51;50.46;99873.31;4985716;28;20069;-89
2022/07/01 02:04:25;;;;;;;1.48;0.70;;;;;;;23.53;50.57;99863.06;4957605;28;20045;-87
2022/07/01 02:06:52;;;;;;;0.80;0.80;;;;;;;23.56;50.42;99866.19;4957352;28;20045;-89
2022/07/01 02:09:19;;;;;;;2.35;1.00;;;;;;;23.52;49.82;99858.72;4998284;28;20038;-89
2022/07/01 02:11:46;;;;;;;3.00;0.93;;;;;;;23.50;49.58;99863.53;4945564;28;20682;-83
2022/07/01 02:14:12;;;;;;;1.13;0.80;;;;;;;23.42;49.89;99859.19;4979711;28;20441;-81
2022/07/01 02:16:39;;;;;;;2.25;0.98;;;;;;;23.41;50.21;99860.25;4962259;28;20049;-80
2022/07/01 02:19:06;;;;;;;1.88;0.70;;;;;;;23.41;50.25;99865.69;4982151;28;20042;-89
2022/07/01 02:21:33;;;;;;;2.67;1.00;;;;;;;23.35;50.66;99861.94;4987305;28;20118;-89
2022/07/01 02:23:59;;;;;;;1.48;1.10;;;;;;;23.35;50.49;99858.41;4987720;28;20042;-89
2022/07/01 02:26:26;;;;;;;2.47;0.80;;;;;;;23.32;50.98;99850.72;4963402;28;20043;-88
2022/07/01 02:28:53;;;;;;;0.70;0.70;;;;;;;23.35;50.83;99851.09;4947229;28;20050;-81
2022/07/01 02:31:20;;;;;;;1.25;1.15;;;;;;;23.32;50.58;99851.56;4986843;28;20046;-81
2022/07/01 02:33:47;;;;;;;1.92;0.90;;;;;;;23.30;50.74;99850.94;4963182;28;20046;-89
2022/07/01 02:36:14;;;;;;;3.63;1.13;;;;;;;23.28;50.74;99847.63;4970107;28;20100;-88
2022/07/01 02:38:41;;;;;;;1.38;0.77;;;;;;;23.21;51.27;99838.72;4961406;28;20048;-81
2022/07/01 02:41:09;;;;;;;1.23;0.85;;;;;;;23.19;51.08;99838.91;4954412;28;20109;-80
2022/07/01 02:43:36;;;;;;;2.38;0.80;;;;;;;23.16;50.98;99820.41;4982313;28;20608;-81
2022/07/01 02:46:04;;;;;;;1.08;0.98;;;;;;;23.13;50.87;99828.16;4981433;28;20050;-81
2022/07/01 02:48:31;;;;;;;1.67;0.82;;;;;;;23.10;50.91;99823.13;4962717;28;20061;-88
2022/07/01 02:50:57;;;;;;;1.17;0.90;;;;;;;23.10;51.21;99823.13;4948530;28;20615;-89
2022/07/01 02:53:24;;;;;;;1.88;0.95;;;;;;;23.08;50.98;99812.53;4979854;28;20061;-89
2022/07/01 02:55:51;;;;;;;1.50;0.90;;;;;;;23.00;50.65;99810.09;4985976;28;20050;-88
2022/07/01 02:58:18;;;;;;;5.00;1.20;;;;;;;23.00;50.62;99811.94;4980304;28;20505;-81
2022/07/01 03:00:46;;;;;;;1.75;1.02;;;;;;;22.97;51.00;99813.22;4983694;28;20038;-91
2022/07/01 03:03:12;;;;;;;0.90;0.90;;;;;;;22.99;50.93;99813.84;4994315;28;20390;-89
2022/07/01 03:05:39;;;;;;;1.60;1.05;;;;;;;22.94;50.68;99808.22;4979488;28;20770;-82
2022/07/01 03:08:06;;;;;;;3.05;1.23;;;;;;;22.95;51.17;99804.47;4985163;28;20511;-85
2022/07/01 03:10:33;;;;;;;2.00;1.35;;;;;;;22.94;51.16;99816.34;4980435;28;20224;-84
2022/07/01 03:13:01;;;;;;;3.22;1.25;;;;;;;22.93;51.19;99830.94;4978844;28;20382;-85
2022/07/01 03:15:29;;;;;;;2.38;1.00;;;;;;;22.94;51.11;99827.16;4950632;28;20053;-85
2022/07/01 03:17:57;;;;;;;1.90;1.00;;;;;;;22.89;51.07;99824.28;4976780;28;20041;-85
2022/07/01 03:20:25;;;;;;;2.42;1.02;;;;;;;22.89;51.24;99840.53;4912810;28;20051;-85
2022/07/01 03:22:51;;;;;;;1.27;1.17;;;;;;;22.86;51.17;99840.97;4979112;28;20046;-82
2022/07/01 03:25:19;;;;;;;2.33;1.40;;;;;;;22.84;51.31;99849.28;4967010;28;20492;-81
2022/07/01 03:27:47;;;;;;;2.72;1.08;;;;;;;22.82;50.78;99858.66;4980117;28;20061;-81
2022/07/01 03:30:17;;;;;;;1.60;1.42;;;;;;;22.71;50.67;99858.28;4956784;28;20038;-78
2022/07/01 03:33:10;;;;;;;2.95;1.50;;;;;;;22.69;51.40;99865.78;4998418;28;20042;-85
2022/07/01 03:35:45;;;;;;;4.28;1.75;;;;;;;22.71;51.21;99863.72;4948220;28;20103;-84
2022/07/01 03:38:14;;;;;;;2.58;1.35;;;;;;;22.70;51.39;99866.66;4965863;28;20049;-83
2022/07/01 03:40:42;;;;;;;2.30;1.80;;;;;;;22.69;51.25;99873.91;4973854;28;20517;-84
2022/07/01 03:43:10;;;;;;;2.50;1.10;;;;;;;22.66;51.27;99878.94;4938042;28;20049;-84
2022/07/01 03:45:39;;;;;;;1.80;1.40;;;;;;;22.64;51.55;99876.44;4953906;28;20054;-84
2022/07/01 03:48:06;;;;;;;2.17;1.50;;;;;;;22.62;51.87;99875.84;4960675;28;20620;-85
2022/07/01 03:50:32;;;;;;;5.95;2.00;;;;;;;22.61;51.76;99906.63;4976148;28;20549;-85
2022/07/01 03:56:09;;;;;;;3.28;1.70;;;;;;;22.57;51.49;99894.59;5001012;28;20409;-83
2022/07/01 03:58:37;;;;;;;3.15;1.92;;;;;;;22.53;51.36;99888.75;4929929;28;20102;-86
2022/07/01 04:01:04;;;;;;;1.90;1.65;;;;;;;22.48;51.38;99909.38;4987073;28;20805;-87
2022/07/01 04:03:31;;;;;;;4.22;2.08;;;;;;;22.49;51.85;99921.84;4978369;28;20046;-88
2022/07/01 04:05:58;;;;;;;3.17;2.22;;;;;;;22.46;52.05;99920.41;4956401;28;20046;-84
2022/07/01 04:08:25;;;;;;;4.45;2.00;;;;;;;22.46;51.53;99933.94;4977058;28;20053;-84
2022/07/01 04:10:53;;;;;;;3.40;2.53;;;;;;;22.41;51.65;99943.72;4954409;28;20476;-82
2022/07/01 04:13:20;;;;;;;2.40;2.10;;;;;;;22.37;52.32;99956.03;4965209;28;20070;-82
2022/07/01 04:16:02;;;;;;;3.60;1.80;;;;;;;22.37;52.39;99966.84;4966510;28;20367;-80
2022/07/01 04:19:22;;;;;;;2.13;1.92;;;;;;;22.36;52.39;99971.41;4979153;28;20038;-81
2022/07/01 04:25:30;;;;;;;2.80;2.30;;;;;;;22.30;52.12;99986.63;4968264;28;20050;-80
2022/07/01 04:32:30;;;;;;;3.88;2.50;;;;;;;22.32;52.76;100013.47;4976999;28;20040;-87
2022/07/01 04:34:57;;;;;;;3.72;2.63;;;;;;;22.32;52.60;100022.41;4961999;28;20113;-88
2022/07/01 04:37:28;;;;;;;5.93;2.08;;;;;;;22.33;52.47;100028.66;4983399;28;20102;-87
2022/07/01 04:39:55;;;;;;;2.55;2.30;;;;;;;22.35;52.31;100028.47;4977544;28;20081;-84
2022/07/01 04:42:22;;;;;;;3.00;2.28;;;;;;;22.31;52.41;100028.03;4976170;28;20045;-84
2022/07/01 04:44:48;;;;;;;2.97;2.15;;;;;;;22.31;52.80;100042.41;4961284;28;20076;-84
2022/07/01 04:47:16;;;;;;;2.35;1.98;;;;;;;22.28;52.90;100053.63;4963714;28;20565;-83
2022/07/01 04:49:43;;;;;;;2.53;2.10;;;;;;;22.28;52.77;100048.22;4955739;28;20057;-82
2022/07/01 04:52:09;;;;;;;3.38;2.08;;;;;;;22.27;52.47;100046.56;4955339;28;20064;-83
2022/07/01 04:54:36;;;;;;;2.95;1.85;;;;;;;22.22;52.76;100042.81;4946730;28;20041;-85
2022/07/01 04:57:03;;;;;;;3.13;1.95;;;;;;;22.22;53.04;100048.22;4948909;28;20125;-87
2022/07/01 04:59:30;;;;;;;2.58;1.95;;;;;;;22.20;53.03;100061.13;4966287;28;20046;-82
2022/07/01 05:01:58;;;;;;;3.47;2.22;;;;;;;22.19;53.02;100060.28;4967317;28;20432;-82
2022/07/01 05:04:27;;;;;;;3.47;1.95;;;;;;;22.17;52.70;100073.16;4978722;28;20046;-84
2022/07/01 05:06:55;;;;;;;2.47;1.80;;;;;;;22.17;53.16;100065.03;4968521;28;20053;-85
2022/07/01 05:09:21;;;;;;;2.10;1.90;;;;;;;22.16;52.85;100068.78;4951689;28;20049;-87
2022/07/01 05:11:53;;;;;;;3.28;2.10;;;;;;;22.18;53.10;100072.09;4947090;28;20042;-83
2022/07/01 05:14:19;;;;;;;3.92;2.00;;;;;;;22.21;52.67;100066.31;4979987;28;20053;-83
2022/07/01 05:16:46;;;;;;;1.98;1.77;;;;;;;22.16;53.06;100074.19;4987077;28;20100;-82
2022/07/01 05:21:59;;;;;;;4.30;1.80;;;;;;;22.14;53.20;100065.44;4924855;28;20049;-83
2022/07/01 05:24:31;;;;;;;2.28;1.83;;;;;;;22.09;52.95;100067.94;4954941;28;20034;-83
2022/07/01 05:26:59;;;;;;;3.40;1.77;;;;;;;22.12;53.27;100083.75;4992762;28;20517;-86
2022/07/01 05:29:26;;;;;;;3.00;1.77;;;;;;;22.10;53.29;100088.53;4972184;28;20073;-87
2022/07/01 05:31:53;;;;;;;2.42;1.90;;;;;;;22.08;53.03;100086.03;4969539;28;20061;-86
2022/07/01 05:34:20;;;;;;;2.83;1.98;;;;;;;22.10;53.24;100081.22;4978427;28;20571;-82
2022/07/01 05:36:47;;;;;;;4.78;1.92;;;;;;;22.08;53.37;100087.88;4951641;28;20042;-83
2022/07/01 05:39:13;;;;;;;3.78;2.20;;;;;;;22.07;53.44;100078.13;4963555;28;20465;-82
2022/07/01 05:41:40;;;;;;;3.35;1.90;;;;;;;22.05;53.34;100089.13;4953866;28;20061;-82
2022/07/01 05:44:07;;;;;;;3.05;2.00;;;;;;;22.06;53.55;100081.88;4977262;28;20042;-85
2022/07/01 05:46:34;;;;;;;3.75;1.70;;;;;;;22.06;53.73;100082.69;4969353;28;20061;-85
2022/07/01 05:53:34;;;;;;;3.33;1.60;;;;;;;22.03;53.50;100087.66;4987778;28;20381;-86
2022/07/01 05:56:01;;;;;;;3.92;2.03;;;;;;;22.03;53.33;100082.25;4964856;28;20052;-83
2022/07/01 05:58:28;;;;;;;3.65;1.65;;;;;;;22.04;53.26;100090.19;4953320;28;20042;-83
2022/07/01 06:00:54;;;;;;;3.10;2.25;;;;;;;22.02;53.46;100094.13;4966004;28;20051;-83
2022/07/01 06:03:33;;;;;;;2.33;2.10;;;;;;;22.00;53.37;100078.09;4967814;28;20050;-86
2022/07/01 06:06:00;;;;;;;2.28;2.05;;;;;;;21.98;53.60;100069.38;4952710;28;20045;-86
2022/07/01 06:08:27;;;;;;;1.88;1.67;;;;;;;21.96;53.27;100057.09;4968457;28;20043;-85
2022/07/01 06:10:54;;;;;;;5.43;2.00;;;;;;;21.97;53.60;100067.69;4963516;28;20628;-86
2022/07/01 06:13:21;;;;;;;4.25;2.10;;;;;;;21.95;53.53;100072.47;4970535;28;20046;-87
2022/07/01 06:15:47;;;;;;;2.72;2.25;;;;;;;21.93;53.99;100074.56;4953990;28;20050;-87
2022/07/01 06:18:15;;;;;;;3.50;2.88;;;;;;;21.92;53.98;100066.66;4970372;28;20092;-82
2022/07/01 06:20:41;;;;;;;4.07;2.50;;;;;;;21.91;53.71;100062.28;4988589;28;20042;-83
2022/07/01 06:23:08;;;;;;;3.75;2.47;;;;;;;21.87;54.43;100076.19;4956587;28;20046;-83
2022/07/01 06:25:35;;;;;;;4.40;2.67;;;;;;;21.82;54.67;100080.53;4953049;28;20049;-84
2022/07/01 06:28:02;;;;;;;4.22;2.60;;;;;;;21.79;54.71;100084.50;4974063;28;20050;-84
2022/07/01 06:30:28;;;;;;;3.63;2.28;;;;;;;21.76;55.09;100093.00;4957713;28;20521;-85
2022/07/01 06:32:55;;;;;;;6.60;2.85;;;;;;;21.75;55.37;100093.19;4982448;28;20053;-84
2022/07/01 06:35:22;;;;;;;4.40;2.50;;;;;;;21.74;55.06;100094.25;4999706;28;20043;-89
2022/07/01 06:37:48;;;;;;;8.32;2.80;;;;;;;21.70;55.20;100101.91;4969287;28;20516;-86
2022/07/01 06:40:22;;;;;;;6.68;2.50;;;;;;;21.71;55.52;100103.59;4957349;28;20049;-86
2022/07/01 06:42:50;;;;;;;3.63;2.40;;;;;;;21.68;55.52;100109.41;4981315;28;20500;-89
2022/07/01 06:45:16;;;;;;;4.07;2.55;;;;;;;21.68;55.41;100106.72;4960862;28;20046;-89
2022/07/01 06:47:43;;;;;;;9.38;3.50;;;;;;;21.65;55.62;100105.25;4968338;28;20050;-89
2022/07/01 06:50:10;;;;;;;5.25;2.78;;;;;;;21.61;55.58;100103.13;4939709;28;20046;-89
2022/07/01 06:52:37;;;;;;;3.63;2.85;;;;;;;21.59;56.00;100110.59;4952930;28;20070;-89
2022/07/01 06:55:07;;;;;;;2.70;2.28;;;;;;;21.60;55.73;100113.13;4969534;28;20401;-85
2022/07/01 06:57:34;;;;;;;3.65;2.28;;;;;;;21.57;55.83;100109.97;4957827;28;20038;-83
2022/07/01 07:00:01;;;;;;;4.20;2.90;;;;;;;21.57;56.19;100118.91;4965915;28;20066;-90
2022/07/01 07:02:27;;;;;;;3.63;2.42;;;;;;;21.57;56.31;100120.78;4948959;28;20045;-90
2022/07/01 07:04:57;;;;;;;6.38;3.20;;;;;;;21.55;56.26;100130.94;4978824;28;20127;-90
2022/07/01 07:07:27;;;;;;;3.13;2.65;;;;;;;21.54;56.19;100123.88;4977052;28;20796;-89
2022/07/01 07:09:55;;;;;;;3.65;2.70;;;;;;;21.52;55.80;100129.47;4970430;28;20049;-84
2022/07/01 07:12:23;;;;;;;7.47;3.25;;;;;;;21.50;56.04;100136.97;4971708;28;20054;-91
2022/07/01 07:14:50;;;;;;;3.30;2.58;;;;;;;21.45;55.97;100132.16;4960969;28;20042;-90
2022/07/01 07:17:17;;;;;;;4.22;2.60;;;;;;;21.44;56.27;100130.47;4957373;28;20053;-89
2022/07/01 07:19:44;;;;;;;3.80;2.72;;;;;;;21.44;56.19;100135.88;4965997;28;20493;-89
2022/07/01 07:22:11;;;;;;;3.95;2.67;;;;;;;21.43;56.16;100128.81;4964374;28;20038;-84
2022/07/01 07:24:38;;;;;;;5.35;2.45;;;;;;;21.41;56.53;100141.69;4970407;28;20652;-84
2022/07/01 07:27:05;;;;;;;4.55;2.78;;;;;;;21.39;56.74;100127.53;4979066;28;20327;-84
2022/07/01 07:29:33;;;;;;;3.22;2.75;;;;;;;21.39;56.82;100130.22;4934706;28;20457;-83
2022/07/01 07:32:00;;;;;;;5.40;2.72;;;;;;;21.38;56.83;100120.47;4964250;28;20046;-84
2022/07/01 07:34:26;;;;;;;9.80;3.38;;;;;;;21.37;57.02;100116.09;4954497;28;20053;-82
2022/07/01 07:41:27;;;;;;;2.25;2.05;;;;;;;21.31;55.07;100134.94;4976239;28;20033;-85
2022/07/01 07:43:53;;;;;;;3.35;2.20;;;;;;;21.28;56.05;100130.78;4967651;28;20046;-86
2022/07/01 07:50:50;;;;;;;2.15;1.90;;;;;;;21.33;56.59;100149.91;4960918;28;20509;-85
2022/07/01 07:53:17;;;;;;;5.90;2.80;;;;;;;21.36;57.10;100160.31;4950922;28;20050;-86
2022/07/01 07:55:46;;;;;;;2.45;2.10;;;;;;;21.38;56.90;100158.28;4956893;28;20065;-86
2022/07/01 07:58:12;;;;;;;3.22;2.30;;;;;;;21.40;56.39;100153.53;4964485;28;20049;-83
2022/07/01 08:00:39;;;;;;;2.70;2.25;;;;;;;21.35;56.20;100145.16;4995297;28;20126;-82
2022/07/01 08:03:06;;;;;;;3.50;2.70;;;;;;;21.39;56.87;100149.16;4975268;28;20982;-86
2022/07/01 08:05:33;;;;;;;3.83;2.35;;;;;;;21.42;56.78;100147.91;4979439;28;20046;-87
2022/07/01 08:08:00;;;;;;;3.85;2.50;;;;;;;21.46;56.52;100152.72;4953694;28;20049;-86
2022/07/01 08:10:27;;;;;;;4.05;2.25;;;;;;;21.43;57.15;100152.31;4985635;28;20042;-86
2022/07/01 08:12:56;;;;;;;2.45;2.25;;;;;;;21.48;56.81;100159.81;4968033;28;20437;-87
2022/07/01 08:15:23;;;;;;;2.85;2.50;;;;;;;21.51;57.04;100168.34;4987249;28;20121;-87
2022/07/01 08:17:50;;;;;;;2.78;2.40;;;;;;;21.50;57.17;100146.91;4990033;28;20046;-86
2022/07/01 08:20:18;;;;;;;4.50;2.28;;;;;;;21.53;56.89;100146.53;4949543;28;20073;-87
2022/07/01 08:22:49;;;;;;;4.45;2.28;;;;;;;21.52;57.12;100161.06;4969945;28;20042;-83
2022/07/01 08:25:16;;;;;;;3.05;2.75;;;;;;;21.56;56.96;100170.47;4953511;28;20045;-85
2022/07/01 08:27:43;;;;;;;3.33;2.67;;;;;;;21.53;56.24;100187.91;4982655;28;20050;-84
2022/07/01 08:30:11;;;;;;;3.33;2.88;;;;;;;21.52;56.80;100190.78;4963952;28;20122;-86
2022/07/01 08:32:38;;;;;;;7.30;3.53;;;;;;;21.51;56.85;100187.25;4967347;28;20045;-86
2022/07/01 08:35:05;;;;;;;2.83;2.58;;;;;;;21.44;56.50;100194.47;4968513;28;20061;-84
2022/07/01 08:37:57;;;;;;;2.45;2.25;;;;;;;21.39;57.58;100199.66;4977232;28;20406;-82
2022/07/01 08:40:30;;;;;;;3.63;2.30;;;;;;;21.41;57.47;100198.41;4983819;28;20141;-88
2022/07/01 08:43:01;;;;;;;4.45;2.78;;;;;;;21.42;57.13;100205.50;4980233;28;20127;-88
2022/07/01 08:45:31;;;;;;;2.60;2.38;;;;;;;21.39;57.10;100208.56;4973917;28;20060;-86
2022/07/01 08:48:00;;;;;;;2.80;2.50;;;;;;;21.35;57.21;100211.88;4969727;28;20084;-86
2022/07/01 08:50:36;;;;;;;4.60;2.60;;;;;;;21.33;57.08;100213.91;4954080;28;20141;-87
2022/07/01 08:53:04;;;;;;;4.78;2.60;;;;;;;21.29;57.27;100226.97;4971342;28;20205;-85
2022/07/01 08:55:30;;;;;;;2.60;2.38;;;;;;;21.25;57.04;100231.13;4967873;28;20038;-86
2022/07/01 08:57:57;;;;;;;3.85;2.20;;;;;;;21.24;57.78;100229.41;4976504;28;20752;-85
2022/07/01 09:00:31;;;;;;;3.90;2.53;;;;;;;21.23;57.75;100236.69;4981971;28;20053;-87
2022/07/01 09:02:58;;;;;;;3.67;2.28;;;;;;;21.23;57.65;100230.47;4939465;28;20057;-86
2022/07/01 09:05:26;;;;;;;4.57;2.38;;;;;;;21.25;57.68;100218.44;4965955;28;20046;-86
2022/07/01 09:08:11;;;;;;;2.38;2.17;;;;;;;21.22;57.90;100221.53;4955274;28;20050;-85
2022/07/01 09:10:38;;;;;;;6.15;2.60;;;;;;;21.25;58.02;100229.25;4963512;28;20104;-86
2022/07/01 09:13:11;;;;;;;2.90;2.50;;;;;;;21.25;58.10;100231.94;4964093;28;20041;-87
2022/07/01 09:15:39;;;;;;;2.63;2.20;;;;;;;21.26;57.71;100230.06;4969714;28;20046;-84
2022/07/01 09:18:17;;;;;;;2.88;2.38;;;;;;;21.25;58.48;100236.50;4969215;28;20050;-87
2022/07/01 09:20:47;;;;;;;2.38;1.88;;;;;;;21.27;57.82;100237.16;4982025;28;20084;-87
2022/07/01 09:23:16;;;;;;;2.63;2.42;;;;;;;21.27;57.92;100239.84;4966279;28;20045;-86
2022/07/01 09:25:48;;;;;;;3.15;2.25;;;;;;;21.27;58.44;100241.69;4993413;28;20053;-85
2022/07/01 09:28:23;;;;;;;3.53;2.38;;;;;;;21.25;57.62;100255.41;4941385;28;20133;-85
2022/07/01 09:30:52;;;;;;;3.42;2.88;;;;;;;21.22;57.97;100251.25;4966482;28;20397;-87
2022/07/01 09:37:25;;;;;;;4.93;2.90;;;;;;;21.20;58.35;100230.88;4943465;28;20041;-84
2022/07/01 09:39:54;;;;;;;2.47;2.28;;;;;;;21.20;58.77;100237.09;4985213;28;20046;-83
2022/07/01 09:42:23;;;;;;;3.00;2.33;;;;;;;21.18;57.72;100227.50;4981053;28;20500;-87
2022/07/01 09:45:11;;;;;;;3.78;2.33;;;;;;;21.16;58.33;100233.09;4962032;28;20093;-85
2022/07/01 09:47:43;;;;;;;3.53;2.65;;;;;;;21.22;58.74;100218.84;4968552;28;20565;-86
2022/07/01 09:50:09;;;;;;;2.75;1.98;;;;;;;21.28;58.88;100216.38;4968303;28;20046;-86
2022/07/01 09:52:38;;;;;;;2.35;2.15;;;;;;;21.33;58.78;100228.25;4983578;28;20065;-86
2022/07/01 09:55:05;;;;;;;2.83;2.58;;;;;;;21.35;58.81;100228.06;4988770;28;20120;-85
2022/07/01 09:57:32;;;;;;;4.68;2.40;;;;;;;21.40;59.25;100252.66;4971559;28;20380;-86
2022/07/01 10:00:00;;;;;;;3.15;2.85;;;;;;;21.38;58.59;100255.56;4989908;28;20050;-86
2022/07/01 10:02:33;;;;;;;3.08;2.47;;;;;;;21.41;58.34;100238.94;4954870;28;20516;-86
2022/07/01 10:05:03;;;;;;;2.53;2.33;;;;;;;21.38;58.63;100243.88;4958625;28;20046;-86
2022/07/01 10:08:02;;;;;;;3.30;2.80;;;;;;;21.30;58.52;100244.88;4977226;28;20494;-86
2022/07/01 10:11:04;;;;;;;2.40;2.20;;;;;;;21.33;57.89;100240.94;4965863;28;20089;-86
2022/07/01 10:17:42;;;;;;;2.40;2.20;;;;;;;21.23;57.36;100250.19;4870499;29;20079;-82
2022/07/01 10:20:14;;;;;;;4.78;2.30;;;;;;;21.28;57.18;100238.81;4895759;29;20412;-83
2022/07/01 10:22:48;;;;;;;2.80;2.60;;;;;;;21.33;58.28;100247.16;4923800;28;20121;-87
2022/07/01 10:25:39;;;;;;;4.47;2.67;;;;;;;21.42;57.86;100245.19;4966129;28;20046;-87
2022/07/01 10:32:20;;;;;;;2.78;2.58;;;;;;;21.48;58.23;100270.59;4944230;28;20077;-87
2022/07/01 10:35:06;;;;;;;3.42;2.20;;;;;;;21.51;57.90;100268.31;4983339;28;20133;-87
2022/07/01 10:37:33;;;;;;;2.95;2.40;;;;;;;21.55;57.83;100257.94;4983535;28;20053;-86
2022/07/01 10:40:01;;;;;;;3.45;2.63;;;;;;;21.61;58.42;100273.38;4968861;28;20045;-86
2022/07/01 10:42:29;;;;;;;3.10;2.47;;;;;;;21.65;58.70;100270.09;4985137;28;20727;-86
2022/07/01 10:45:07;;;;;;;3.13;2.60;;;;;;;21.71;58.66;100271.16;4979839;28;20481;-83
2022/07/01 10:47:34;;;;;;;4.03;2.33;;;;;;;21.74;57.57;100261.81;4953847;28;20042;-83
2022/07/01 10:50:06;;;;;;;3.85;2.80;;;;;;;21.79;57.40;100260.19;4979804;28;20136;-83
2022/07/01 10:52:33;;;;;;;3.67;2.20;;;;;;;21.77;57.35;100262.25;4987703;28;20037;-84
2022/07/01 10:55:01;;;;;;;3.33;2.53;;;;;;;21.72;56.78;100266.59;4957886;28;20037;-86
2022/07/01 10:57:31;;;;;;;5.13;2.78;;;;;;;21.63;57.12;100258.66;4983917;28;20498;-85
2022/07/01 11:00:00;;;;;;;3.05;2.78;;;;;;;21.70;56.93;100260.53;4971545;28;20057;-85
2022/07/01 11:02:35;;;;;;;5.25;2.50;;;;;;;21.78;56.40;100255.84;4966341;28;20045;-84
2022/07/01 11:05:09;;;;;;;2.92;2.60;;;;;;;21.86;55.70;100258.38;4922976;28;20601;-85
2022/07/01 11:07:38;;;;;;;3.67;2.58;;;;;;;21.94;56.12;100265.47;4946927;28;20102;-83
2022/07/01 11:10:10;;;;;;;5.10;2.67;;;;;;;21.98;54.35;100268.63;4948153;28;20051;-87
2022/07/01 11:17:08;;;;;;;3.85;2.40;;;;;;;21.75;54.39;100266.19;4930564;28;20039;-83
2022/07/01 11:19:35;;;;;;;2.42;2.22;;;;;;;21.72;53.89;100272.81;4931407;28;20446;-82
2022/07/01 11:22:02;;;;;;;2.53;2.22;;;;;;;21.71;54.14;100283.84;4950172;28;20046;-86
2022/07/01 11:24:29;;;;;;;3.90;2.25;;;;;;;21.73;55.05;100273.66;4958784;28;20055;-85
2022/07/01 11:27:06;;;;;;;3.75;2.20;;;;;;;21.72;56.68;100275.53;4941220;28;20050;-88
2022/07/01 11:29:33;;;;;;;3.28;1.92;;;;;;;21.76;56.10;100274.13;4953154;28;20051;-83
2022/07/01 11:32:02;;;;;;;3.13;2.00;;;;;;;21.73;54.63;100273.66;4939693;28;20352;-82
2022/07/01 11:34:31;;;;;;;2.65;1.98;;;;;;;21.70;55.57;100277.59;4950152;28;20043;-87
2022/07/01 11:39:47;;;;;;;2.25;1.90;;;;;;;21.72;55.68;100283.63;4947984;28;20166;-87
2022/07/01 11:42:14;;;;;;;4.15;2.13;;;;;;;21.71;55.39;100284.69;4953972;28;20073;-87
2022/07/01 11:44:43;;;;;;;2.75;2.20;;;;;;;21.68;55.33;100287.78;4966555;28;20494;-87
2022/07/01 11:47:12;;;;;;;1.95;1.75;;;;;;;21.72;56.00;100272.00;4951186;28;20087;-86
2022/07/01 11:49:45;;;;;;;2.63;1.98;;;;;;;21.67;56.35;100267.19;4984153;28;20046;-87
2022/07/01 11:52:14;;;;;;;2.10;1.90;;;;;;;21.72;56.14;100264.72;4948199;28;20684;-86
2022/07/01 11:54:47;;;;;;;5.18;2.20;;;;;;;21.81;56.34;100274.34;4965952;28;20116;-87
2022/07/01 11:57:26;;;;;;;3.75;2.10;;;;;;;21.90;56.48;100269.59;4964074;28;20057;-86
2022/07/01 11:59:54;;;;;;;2.25;1.92;;;;;;;22.02;55.78;100270.72;4954671;28;20046;-86
2022/07/01 12:02:22;;;;;;;9.38;2.00;;;;;;;22.05;55.00;100262.19;4969198;28;20452;-88
2022/07/01 12:04:51;;;;;;;3.63;2.15;;;;;;;22.04;55.41;100257.84;4958726;28;20050;-86
2022/07/01 12:07:24;;;;;;;2.97;2.50;;;;;;;22.07;55.48;100262.84;4947651;28;20046;-86
2022/07/01 12:09:51;;;;;;;5.43;1.90;;;;;;;22.15;55.46;100255.59;4951309;28;20054;-86
2022/07/01 12:12:22;;;;;;;2.67;2.08;;;;;;;22.17;54.09;100262.47;4979376;28;20046;-86
2022/07/01 12:19:39;;;;;;;2.95;2.10;;;;;;;22.35;54.53;100253.00;4988011;28;20506;-82
2022/07/01 12:23:01;;;;;;;1.98;1.80;;;;;;;22.31;52.46;100256.13;4985049;28;20046;-82
2022/07/01 12:25:28;;;;;;;2.83;1.77;;;;;;;22.33;52.24;100254.03;4898101;28;20045;-83
2022/07/01 12:27:58;;;;;;;3.85;1.73;;;;;;;22.41;52.66;100263.03;4959866;28;20045;-86
2022/07/01 12:30:32;;;;;;;2.83;1.92;;;;;;;22.45;51.76;100261.59;4970118;28;20058;-89